Station Historical Data
Daily Summary for April 5, 2011 Units:  Both    English   Metric
« Previous Day
Next Day »
Daily Weekly Monthly Yearly Custom
  High: Low: Average:
Temperature: 57.3 °F /  14.1 °C 45.9 °F /  7.7 °C 52.2 °F /  11.2 °C
Dew Point: 30.7 °F /  -0.7 °C 17.6 °F /  -8 °C 23.7 °F /  -4.6 °C
Humidity: 51% 23% 33%
Wind Speed: 16.0mph /  25.7km/h - 5.5mph /  8.9km/h
Wind Gust: 22.0mph /  35.4km/h - -
Wind- - WSW
Pressure: 30.08 in /  1018.5 hPa 30.00 in /  1015.8 hPa -
Precipitation: 0.00 in /  0 mm    
Historical Graphs
 
 
Tabular Data for April 5, 2011
Time Temperature Dew Point Pressure Wind Wind Speed Wind Gust Humidity Rainfall Rate (Hourly) Conditions
11:06 47.1 °F /  8.4 °C 27.9 °F /  -2.3 °C 30.02in /  1016.5hPa NNW 11.0mph /  17.7km/h 16.0mph /  25.7km/h 47% 0.00in /  0mm
11:11 47.2 °F /  8.4 °C 26.4 °F /  -3.1 °C 30.03in /  1016.8hPa WNW 16.0mph /  25.7km/h 17.0mph /  27.4km/h 44% 0.00in /  0mm
11:16 47.5 °F /  8.6 °C 30.3 °F /  -0.9 °C 30.03in /  1016.8hPa WNW 9.0mph /  14.5km/h 10.0mph /  16.1km/h 51% 0.00in /  0mm
11:21 47.5 °F /  8.6 °C 26.1 °F /  -3.3 °C 30.03in /  1016.8hPa WNW 8.0mph /  12.9km/h 12.0mph /  19.3km/h 43% 0.00in /  0mm
11:26 47.9 °F /  8.8 °C 30.7 °F /  -0.7 °C 30.03in /  1016.8hPa WNW 5.0mph /  8km/h 15.0mph /  24.1km/h 51% 0.00in /  0mm
11:27 47.9 °F /  8.8 °C 27.6 °F /  -2.4 °C 30.03in /  1016.8hPa WNW 6.0mph /  9.7km/h 15.0mph /  24.1km/h 45% 0.00in /  0mm
11:31 48.1 °F /  8.9 °C 28.8 °F /  -1.8 °C 30.04in /  1017.2hPa NW 7.0mph /  11.3km/h 19.0mph /  30.6km/h 47% 0.00in /  0mm
11:32 48.1 °F /  8.9 °C 28.8 °F /  -1.8 °C 30.04in /  1017.2hPa NW 7.0mph /  11.3km/h 19.0mph /  30.6km/h 47% 0.00in /  0mm
11:35 48.1 °F /  8.9 °C 28.8 °F /  -1.8 °C 30.04in /  1017.2hPa NW 7.0mph /  11.3km/h 11.0mph /  17.7km/h 47% 0.00in /  0mm
11:37 48.2 °F /  9 °C 29.5 °F /  -1.4 °C 30.04in /  1017.2hPa NW 8.0mph /  12.9km/h 12.0mph /  19.3km/h 48% 0.00in /  0mm
11:42 48.3 °F /  9.1 °C 27.4 °F /  -2.6 °C 30.04in /  1017.2hPa WNW 9.0mph /  14.5km/h 14.0mph /  22.5km/h 44% 0.00in /  0mm
11:47 47.9 °F /  8.8 °C 24.1 °F /  -4.4 °C 30.04in /  1017.2hPa WNW 11.0mph /  17.7km/h 14.0mph /  22.5km/h 39% 0.00in /  0mm
11:52 48.3 °F /  9.1 °C 29.0 °F /  -1.7 °C 30.04in /  1017.2hPa NW 10.0mph /  16.1km/h 10.0mph /  16.1km/h 47% 0.00in /  0mm
11:53 48.4 °F /  9.1 °C 29.1 °F /  -1.6 °C 30.04in /  1017.2hPa WNW 8.0mph /  12.9km/h 10.0mph /  16.1km/h 47% 0.00in /  0mm
11:57 48.9 °F /  9.4 °C 29.6 °F /  -1.3 °C 30.04in /  1017.2hPa NW 8.0mph /  12.9km/h 11.0mph /  17.7km/h 47% 0.00in /  0mm
11:58 49.0 °F /  9.4 °C 28.6 °F /  -1.9 °C 30.04in /  1017.2hPa West 11.0mph /  17.7km/h 11.0mph /  17.7km/h 45% 0.00in /  0mm
12:02 49.3 °F /  9.6 °C 28.3 °F /  -2.1 °C 30.04in /  1017.2hPa NNW 10.0mph /  16.1km/h 11.0mph /  17.7km/h 44% 0.00in /  0mm
12:07 49.5 °F /  9.7 °C 28.5 °F /  -1.9 °C 30.04in /  1017.2hPa WNW 9.0mph /  14.5km/h 10.0mph /  16.1km/h 44% 0.00in /  0mm
12:12 49.3 °F /  9.6 °C 27.8 °F /  -2.3 °C 30.04in /  1017.2hPa NW 7.0mph /  11.3km/h 13.0mph /  20.9km/h 43% 0.00in /  0mm
12:14 49.4 °F /  9.7 °C 27.9 °F /  -2.3 °C 30.04in /  1017.2hPa WNW 8.0mph /  12.9km/h 13.0mph /  20.9km/h 43% 0.00in /  0mm
12:19 49.4 °F /  9.7 °C 26.7 °F /  -2.9 °C 30.05in /  1017.5hPa West 10.0mph /  16.1km/h 14.0mph /  22.5km/h 41% 0.00in /  0mm
12:24 49.4 °F /  9.7 °C 27.9 °F /  -2.3 °C 30.05in /  1017.5hPa NW 8.0mph /  12.9km/h 17.0mph /  27.4km/h 43% 0.00in /  0mm
12:29 49.9 °F /  9.9 °C 29.4 °F /  -1.4 °C 30.05in /  1017.5hPa WNW 8.0mph /  12.9km/h 15.0mph /  24.1km/h 45% 0.00in /  0mm
12:30 49.9 °F /  9.9 °C 29.4 °F /  -1.4 °C 30.06in /  1017.8hPa WNW 12.0mph /  19.3km/h 15.0mph /  24.1km/h 45% 0.00in /  0mm
12:34 50.2 °F /  10.1 °C 25.6 °F /  -3.6 °C 30.05in /  1017.5hPa West 12.0mph /  19.3km/h 13.0mph /  20.9km/h 38% 0.00in /  0mm
12:35 50.2 °F /  10.1 °C 29.1 °F /  -1.6 °C 30.06in /  1017.8hPa WNW 13.0mph /  20.9km/h 18.0mph /  29km/h 44% 0.00in /  0mm
12:37 49.9 °F /  9.9 °C 25.3 °F /  -3.7 °C 30.06in /  1017.8hPa WNW 11.0mph /  17.7km/h 18.0mph /  29km/h 38% 0.00in /  0mm
12:40 49.8 °F /  9.9 °C 25.2 °F /  -3.8 °C 30.06in /  1017.8hPa NW 12.0mph /  19.3km/h 16.0mph /  25.7km/h 38% 0.00in /  0mm
12:43 50.0 °F /  10 °C 26.6 °F /  -3 °C 30.06in /  1017.8hPa West 7.0mph /  11.3km/h 13.0mph /  20.9km/h 40% 0.00in /  0mm
12:45 50.3 °F /  10.2 °C 26.9 °F /  -2.8 °C 30.06in /  1017.8hPa NW 11.0mph /  17.7km/h 17.0mph /  27.4km/h 40% 0.00in /  0mm
12:50 50.5 °F /  10.3 °C 27.1 °F /  -2.7 °C 30.06in /  1017.8hPa WNW 10.0mph /  16.1km/h 10.0mph /  16.1km/h 40% 0.00in /  0mm
12:52 50.5 °F /  10.3 °C 26.5 °F /  -3.1 °C 30.06in /  1017.8hPa WNW 12.0mph /  19.3km/h 15.0mph /  24.1km/h 39% 0.00in /  0mm
12:55 50.4 °F /  10.2 °C 27.0 °F /  -2.8 °C 30.06in /  1017.8hPa West 8.0mph /  12.9km/h 13.0mph /  20.9km/h 40% 0.00in /  0mm
12:56 50.5 °F /  10.3 °C 27.1 °F /  -2.7 °C 30.06in /  1017.8hPa WNW 12.0mph /  19.3km/h 13.0mph /  20.9km/h 40% 0.00in /  0mm
12:57 50.7 °F /  10.4 °C 26.7 °F /  -2.9 °C 30.07in /  1018.2hPa WNW 6.0mph /  9.7km/h 13.0mph /  20.9km/h 39% 0.00in /  0mm
13:01 50.8 °F /  10.4 °C 24.8 °F /  -4 °C 30.06in /  1017.8hPa West 13.0mph /  20.9km/h 13.0mph /  20.9km/h 36% 0.00in /  0mm
13:06 51.3 °F /  10.7 °C 25.9 °F /  -3.4 °C 30.06in /  1017.8hPa WNW 11.0mph /  17.7km/h 12.0mph /  19.3km/h 37% 0.00in /  0mm
13:11 51.1 °F /  10.6 °C 21.5 °F /  -5.8 °C 30.06in /  1017.8hPa West 15.0mph /  24.1km/h 22.0mph /  35.4km/h 31% 0.00in /  0mm
13:16 51.2 °F /  10.7 °C 23.1 °F /  -4.9 °C 30.06in /  1017.8hPa WNW 12.0mph /  19.3km/h 15.0mph /  24.1km/h 33% 0.00in /  0mm
13:21 51.1 °F /  10.6 °C 25.1 °F /  -3.8 °C 30.06in /  1017.8hPa WNW 10.0mph /  16.1km/h 13.0mph /  20.9km/h 36% 0.00in /  0mm
13:26 51.2 °F /  10.7 °C 20.0 °F /  -6.7 °C 30.06in /  1017.8hPa WNW 9.0mph /  14.5km/h 16.0mph /  25.7km/h 29% 0.00in /  0mm
13:27 51.2 °F /  10.7 °C 20.0 °F /  -6.7 °C 30.06in /  1017.8hPa West 10.0mph /  16.1km/h 16.0mph /  25.7km/h 29% 0.00in /  0mm
13:28 51.1 °F /  10.6 °C 20.8 °F /  -6.2 °C 30.06in /  1017.8hPa NW 12.0mph /  19.3km/h 16.0mph /  25.7km/h 30% 0.00in /  0mm
13:32 51.5 °F /  10.8 °C 23.4 °F /  -4.8 °C 30.06in /  1017.8hPa WNW 8.0mph /  12.9km/h 10.0mph /  16.1km/h 33% 0.00in /  0mm
13:33 51.6 °F /  10.9 °C 23.5 °F /  -4.7 °C 30.06in /  1017.8hPa WSW 7.0mph /  11.3km/h 10.0mph /  16.1km/h 33% 0.00in /  0mm
13:37 51.9 °F /  11.1 °C 25.1 °F /  -3.8 °C 30.05in /  1017.5hPa West 6.0mph /  9.7km/h 14.0mph /  22.5km/h 35% 0.00in /  0mm
13:38 51.9 °F /  11.1 °C 25.1 °F /  -3.8 °C 30.05in /  1017.5hPa West 6.0mph /  9.7km/h 14.0mph /  22.5km/h 35% 0.00in /  0mm
13:42 52.4 °F /  11.3 °C 24.2 °F /  -4.3 °C 30.05in /  1017.5hPa West 7.0mph /  11.3km/h 10.0mph /  16.1km/h 33% 0.00in /  0mm
13:43 52.4 °F /  11.3 °C 22.7 °F /  -5.2 °C 30.05in /  1017.5hPa WNW 12.0mph /  19.3km/h 12.0mph /  19.3km/h 31% 0.00in /  0mm
13:48 52.1 °F /  11.2 °C 21.6 °F /  -5.8 °C 30.05in /  1017.5hPa NW 6.0mph /  9.7km/h 15.0mph /  24.1km/h 30% 0.00in /  0mm
13:51 52.5 °F /  11.4 °C 24.2 °F /  -4.3 °C 30.06in /  1017.8hPa WNW 13.0mph /  20.9km/h 14.0mph /  22.5km/h 33% 0.00in /  0mm
13:53 52.5 °F /  11.4 °C 21.2 °F /  -6 °C 30.05in /  1017.5hPa NW 8.0mph /  12.9km/h 17.0mph /  27.4km/h 29% 0.00in /  0mm
13:54 52.4 °F /  11.3 °C 22.7 °F /  -5.2 °C 30.05in /  1017.5hPa NW 14.0mph /  22.5km/h 17.0mph /  27.4km/h 31% 0.00in /  0mm
13:58 52.4 °F /  11.3 °C 21.1 °F /  -6.1 °C 30.05in /  1017.5hPa NNE 10.0mph /  16.1km/h 15.0mph /  24.1km/h 29% 0.00in /  0mm
14:03 52.6 °F /  11.4 °C 21.3 °F /  -5.9 °C 30.05in /  1017.5hPa WNW 3.0mph /  4.8km/h 10.0mph /  16.1km/h 29% 0.00in /  0mm
14:08 52.9 °F /  11.6 °C 20.7 °F /  -6.3 °C 30.05in /  1017.5hPa WNW 16.0mph /  25.7km/h 16.0mph /  25.7km/h 28% 0.00in /  0mm
14:13 52.9 °F /  11.6 °C 22.3 °F /  -5.4 °C 30.05in /  1017.5hPa NW 4.0mph /  6.4km/h 10.0mph /  16.1km/h 30% 0.00in /  0mm
14:18 53.3 °F /  11.8 °C 21.9 °F /  -5.6 °C 30.05in /  1017.5hPa WNW 5.0mph /  8km/h 11.0mph /  17.7km/h 29% 0.00in /  0mm
14:23 53.5 °F /  11.9 °C 22.9 °F /  -5.1 °C 30.04in /  1017.2hPa WNW 5.0mph /  8km/h 7.0mph /  11.3km/h 30% 0.00in /  0mm
14:28 53.7 °F /  12.1 °C 23.0 °F /  -5 °C 30.04in /  1017.2hPa WNW 10.0mph /  16.1km/h 12.0mph /  19.3km/h 30% 0.00in /  0mm
14:29 53.7 °F /  12.1 °C 23.0 °F /  -5 °C 30.04in /  1017.2hPa NW 13.0mph /  20.9km/h 13.0mph /  20.9km/h 30% 0.00in /  0mm
14:34 53.4 °F /  11.9 °C 18.5 °F /  -7.5 °C 30.04in /  1017.2hPa West 6.0mph /  9.7km/h 18.0mph /  29km/h 25% 0.00in /  0mm
14:35 53.3 °F /  11.8 °C 20.2 °F /  -6.6 °C 30.04in /  1017.2hPa North 7.0mph /  11.3km/h 18.0mph /  29km/h 27% 0.00in /  0mm
14:36 53.3 °F /  11.8 °C 20.2 °F /  -6.6 °C 30.04in /  1017.2hPa NNE 4.0mph /  6.4km/h 13.0mph /  20.9km/h 27% 0.00in /  0mm
14:40 53.8 °F /  12.1 °C 25.4 °F /  -3.7 °C 30.04in /  1017.2hPa WNW 5.0mph /  8km/h 8.0mph /  12.9km/h 33% 0.00in /  0mm
14:45 54.1 °F /  12.3 °C 21.7 °F /  -5.7 °C 30.04in /  1017.2hPa WNW 8.0mph /  12.9km/h 11.0mph /  17.7km/h 28% 0.00in /  0mm
14:50 54.5 °F /  12.5 °C 22.9 °F /  -5.1 °C 30.04in /  1017.2hPa WNW 10.0mph /  16.1km/h 11.0mph /  17.7km/h 29% 0.00in /  0mm
14:51 54.4 °F /  12.4 °C 21.1 °F /  -6.1 °C 30.04in /  1017.2hPa West 7.0mph /  11.3km/h 11.0mph /  17.7km/h 27% 0.00in /  0mm
14:52 54.4 °F /  12.4 °C 21.1 °F /  -6.1 °C 30.04in /  1017.2hPa NW 4.0mph /  6.4km/h 11.0mph /  17.7km/h 27% 0.00in /  0mm
14:56 54.7 °F /  12.6 °C 22.3 °F /  -5.4 °C 30.04in /  1017.2hPa WSW 14.0mph /  22.5km/h 14.0mph /  22.5km/h 28% 0.00in /  0mm
14:57 54.6 °F /  12.6 °C 21.3 °F /  -5.9 °C 30.04in /  1017.2hPa WNW 8.0mph /  12.9km/h 14.0mph /  22.5km/h 27% 0.00in /  0mm
14:58 54.5 °F /  12.5 °C 18.5 °F /  -7.5 °C 30.04in /  1017.2hPa WNW 6.0mph /  9.7km/h 14.0mph /  22.5km/h 24% 0.00in /  0mm
15:03 54.4 °F /  12.4 °C 20.2 °F /  -6.6 °C 30.03in /  1016.8hPa West 10.0mph /  16.1km/h 15.0mph /  24.1km/h 26% 0.00in /  0mm
15:08 54.6 °F /  12.6 °C 21.3 °F /  -5.9 °C 30.03in /  1016.8hPa WNW 10.0mph /  16.1km/h 15.0mph /  24.1km/h 27% 0.00in /  0mm
15:10 54.6 °F /  12.6 °C 17.6 °F /  -8 °C 30.03in /  1016.8hPa NW 12.0mph /  19.3km/h 13.0mph /  20.9km/h 23% 0.00in /  0mm
15:15 54.9 °F /  12.7 °C 24.1 °F /  -4.4 °C 30.04in /  1017.2hPa NW 8.0mph /  12.9km/h 14.0mph /  22.5km/h 30% 0.00in /  0mm
15:16 54.9 °F /  12.7 °C 24.1 °F /  -4.4 °C 30.04in /  1017.2hPa NW 8.0mph /  12.9km/h 14.0mph /  22.5km/h 30% 0.00in /  0mm
15:21 54.9 °F /  12.7 °C 24.9 °F /  -3.9 °C 30.03in /  1016.8hPa NW 5.0mph /  8km/h 10.0mph /  16.1km/h 31% 0.00in /  0mm
15:26 54.8 °F /  12.7 °C 21.5 °F /  -5.8 °C 30.04in /  1017.2hPa NW 6.0mph /  9.7km/h 13.0mph /  20.9km/h 27% 0.00in /  0mm
15:31 54.8 °F /  12.7 °C 20.6 °F /  -6.3 °C 30.03in /  1016.8hPa WNW 6.0mph /  9.7km/h 11.0mph /  17.7km/h 26% 0.00in /  0mm
15:33 54.9 °F /  12.7 °C 21.6 °F /  -5.8 °C 30.03in /  1016.8hPa NW 4.0mph /  6.4km/h 11.0mph /  17.7km/h 27% 0.00in /  0mm
15:36 54.9 °F /  12.7 °C 19.8 °F /  -6.8 °C 30.03in /  1016.8hPa WSW 10.0mph /  16.1km/h 11.0mph /  17.7km/h 25% 0.00in /  0mm
15:42 55.2 °F /  12.9 °C 21.8 °F /  -5.7 °C 30.03in /  1016.8hPa WNW 7.0mph /  11.3km/h 12.0mph /  19.3km/h 27% 0.00in /  0mm
15:43 55.3 °F /  12.9 °C 21.9 °F /  -5.6 °C 30.03in /  1016.8hPa WNW 6.0mph /  9.7km/h 11.0mph /  17.7km/h 27% 0.00in /  0mm
15:48 55.2 °F /  12.9 °C 22.7 °F /  -5.2 °C 30.03in /  1016.8hPa West 8.0mph /  12.9km/h 11.0mph /  17.7km/h 28% 0.00in /  0mm
15:53 55.2 °F /  12.9 °C 20.9 °F /  -6.2 °C 30.03in /  1016.8hPa WSW 9.0mph /  14.5km/h 12.0mph /  19.3km/h 26% 0.00in /  0mm
15:54 55.1 °F /  12.8 °C 21.7 °F /  -5.7 °C 30.03in /  1016.8hPa WNW 7.0mph /  11.3km/h 11.0mph /  17.7km/h 27% 0.00in /  0mm
15:58 55.7 °F /  13.2 °C 25.5 °F /  -3.6 °C 30.03in /  1016.8hPa WNW 11.0mph /  17.7km/h 16.0mph /  25.7km/h 31% 0.00in /  0mm
16:03 55.7 °F /  13.2 °C 24.8 °F /  -4 °C 30.03in /  1016.8hPa West 7.0mph /  11.3km/h 12.0mph /  19.3km/h 30% 0.00in /  0mm
16:08 55.9 °F /  13.3 °C 25.7 °F /  -3.5 °C 30.03in /  1016.8hPa NNW 8.0mph /  12.9km/h 12.0mph /  19.3km/h 31% 0.00in /  0mm
16:13 56.0 °F /  13.3 °C 22.5 °F /  -5.3 °C 30.03in /  1016.8hPa WNW 9.0mph /  14.5km/h 18.0mph /  29km/h 27% 0.00in /  0mm
16:18 55.8 °F /  13.2 °C 20.5 °F /  -6.4 °C 30.03in /  1016.8hPa WNW 10.0mph /  16.1km/h 12.0mph /  19.3km/h 25% 0.00in /  0mm
16:21 55.8 °F /  13.2 °C 21.5 °F /  -5.8 °C 30.02in /  1016.5hPa WNW 6.0mph /  9.7km/h 14.0mph /  22.5km/h 26% 0.00in /  0mm
16:24 55.6 °F /  13.1 °C 19.4 °F /  -7 °C 30.02in /  1016.5hPa WSW 9.0mph /  14.5km/h 15.0mph /  24.1km/h 24% 0.00in /  0mm
16:28 55.5 °F /  13.1 °C 23.0 °F /  -5 °C 30.02in /  1016.5hPa West 12.0mph /  19.3km/h 15.0mph /  24.1km/h 28% 0.00in /  0mm
16:29 55.6 °F /  13.1 °C 20.4 °F /  -6.4 °C 30.02in /  1016.5hPa WSW 10.0mph /  16.1km/h 12.0mph /  19.3km/h 25% 0.00in /  0mm
16:33 56.1 °F /  13.4 °C 21.7 °F /  -5.7 °C 30.02in /  1016.5hPa West 7.0mph /  11.3km/h 13.0mph /  20.9km/h 26% 0.00in /  0mm
16:34 56.2 °F /  13.4 °C 21.8 °F /  -5.7 °C 30.02in /  1016.5hPa WSW 11.0mph /  17.7km/h 13.0mph /  20.9km/h 26% 0.00in /  0mm
16:35 56.2 °F /  13.4 °C 21.8 °F /  -5.7 °C 30.02in /  1016.5hPa WSW 7.0mph /  11.3km/h 13.0mph /  20.9km/h 26% 0.00in /  0mm
16:40 56.2 °F /  13.4 °C 22.7 °F /  -5.2 °C 30.02in /  1016.5hPa WNW 8.0mph /  12.9km/h 13.0mph /  20.9km/h 27% 0.00in /  0mm
16:41 56.2 °F /  13.4 °C 22.7 °F /  -5.2 °C 30.02in /  1016.5hPa West 8.0mph /  12.9km/h 13.0mph /  20.9km/h 27% 0.00in /  0mm
16:46 56.3 °F /  13.5 °C 22.8 °F /  -5.1 °C 30.02in /  1016.5hPa NW 8.0mph /  12.9km/h 12.0mph /  19.3km/h 27% 0.00in /  0mm
16:51 56.1 °F /  13.4 °C 20.8 °F /  -6.2 °C 30.02in /  1016.5hPa WNW 14.0mph /  22.5km/h 14.0mph /  22.5km/h 25% 0.00in /  0mm
16:52 56.1 °F /  13.4 °C 19.8 °F /  -6.8 °C 30.02in /  1016.5hPa West 11.0mph /  17.7km/h 14.0mph /  22.5km/h 24% 0.00in /  0mm
16:57 56.0 °F /  13.3 °C 19.7 °F /  -6.8 °C 30.02in /  1016.5hPa SW 8.0mph /  12.9km/h 11.0mph /  17.7km/h 24% 0.00in /  0mm
17:02 56.4 °F /  13.6 °C 20.1 °F /  -6.6 °C 30.02in /  1016.5hPa WSW 10.0mph /  16.1km/h 10.0mph /  16.1km/h 24% 0.00in /  0mm
17:03 56.5 °F /  13.6 °C 22.9 °F /  -5.1 °C 30.02in /  1016.5hPa WNW 8.0mph /  12.9km/h 10.0mph /  16.1km/h 27% 0.00in /  0mm
17:07 56.4 °F /  13.6 °C 22.0 °F /  -5.6 °C 30.02in /  1016.5hPa NW 15.0mph /  24.1km/h 20.0mph /  32.2km/h 26% 0.00in /  0mm
17:12 56.4 °F /  13.6 °C 23.7 °F /  -4.6 °C 30.01in /  1016.1hPa WNW 10.0mph /  16.1km/h 12.0mph /  19.3km/h 28% 0.00in /  0mm
17:17 56.3 °F /  13.5 °C 21.0 °F /  -6.1 °C 30.01in /  1016.1hPa WNW 11.0mph /  17.7km/h 16.0mph /  25.7km/h 25% 0.00in /  0mm
17:22 56.3 °F /  13.5 °C 21.0 °F /  -6.1 °C 30.01in /  1016.1hPa NW 4.0mph /  6.4km/h 9.0mph /  14.5km/h 25% 0.00in /  0mm
17:23 56.3 °F /  13.5 °C 21.0 °F /  -6.1 °C 30.01in /  1016.1hPa NW 4.0mph /  6.4km/h 9.0mph /  14.5km/h 25% 0.00in /  0mm
17:28 56.8 °F /  13.8 °C 23.2 °F /  -4.9 °C 30.01in /  1016.1hPa West 6.0mph /  9.7km/h 15.0mph /  24.1km/h 27% 0.00in /  0mm
17:33 56.8 °F /  13.8 °C 19.4 °F /  -7 °C 30.01in /  1016.1hPa West 10.0mph /  16.1km/h 15.0mph /  24.1km/h 23% 0.00in /  0mm
17:34 56.7 °F /  13.7 °C 21.3 °F /  -5.9 °C 30.01in /  1016.1hPa WNW 8.0mph /  12.9km/h 14.0mph /  22.5km/h 25% 0.00in /  0mm
17:35 56.8 °F /  13.8 °C 22.3 °F /  -5.4 °C 30.01in /  1016.1hPa WNW 7.0mph /  11.3km/h 13.0mph /  20.9km/h 26% 0.00in /  0mm
17:38 56.8 °F /  13.8 °C 21.4 °F /  -5.9 °C 30.01in /  1016.1hPa WNW 4.0mph /  6.4km/h 11.0mph /  17.7km/h 25% 0.00in /  0mm
17:43 56.8 °F /  13.8 °C 21.4 °F /  -5.9 °C 30.01in /  1016.1hPa WNW 6.0mph /  9.7km/h 11.0mph /  17.7km/h 25% 0.00in /  0mm
17:48 56.7 °F /  13.7 °C 21.3 °F /  -5.9 °C 30.01in /  1016.1hPa NW 6.0mph /  9.7km/h 10.0mph /  16.1km/h 25% 0.00in /  0mm
17:49 56.7 °F /  13.7 °C 21.3 °F /  -5.9 °C 30.01in /  1016.1hPa NW 6.0mph /  9.7km/h 10.0mph /  16.1km/h 25% 0.00in /  0mm
17:54 56.8 °F /  13.8 °C 25.7 °F /  -3.5 °C 30.00in /  1015.8hPa WNW 7.0mph /  11.3km/h 8.0mph /  12.9km/h 30% 0.00in /  0mm
17:59 57.2 °F /  14 °C 24.4 °F /  -4.2 °C 30.01in /  1016.1hPa WSW 3.0mph /  4.8km/h 8.0mph /  12.9km/h 28% 0.00in /  0mm
18:04 57.3 °F /  14.1 °C 25.3 °F /  -3.7 °C 30.01in /  1016.1hPa West 4.0mph /  6.4km/h 9.0mph /  14.5km/h 29% 0.00in /  0mm
18:09 57.2 °F /  14 °C 22.6 °F /  -5.2 °C 30.01in /  1016.1hPa NW 7.0mph /  11.3km/h 11.0mph /  17.7km/h 26% 0.00in /  0mm
18:14 57.2 °F /  14 °C 21.7 °F /  -5.7 °C 30.01in /  1016.1hPa WNW 4.0mph /  6.4km/h 8.0mph /  12.9km/h 25% 0.00in /  0mm
18:19 57.3 °F /  14.1 °C 20.8 °F /  -6.2 °C 30.01in /  1016.1hPa WNW 9.0mph /  14.5km/h 9.0mph /  14.5km/h 24% 0.00in /  0mm
18:24 56.9 °F /  13.8 °C 19.5 °F /  -6.9 °C 30.00in /  1015.8hPa NW 6.0mph /  9.7km/h 8.0mph /  12.9km/h 23% 0.00in /  0mm
18:29 56.9 °F /  13.8 °C 20.5 °F /  -6.4 °C 30.01in /  1016.1hPa WNW 3.0mph /  4.8km/h 7.0mph /  11.3km/h 24% 0.00in /  0mm
18:31 56.9 °F /  13.8 °C 20.5 °F /  -6.4 °C 30.01in /  1016.1hPa West 4.0mph /  6.4km/h 8.0mph /  12.9km/h 24% 0.00in /  0mm
18:34 57.0 °F /  13.9 °C 21.5 °F /  -5.8 °C 30.01in /  1016.1hPa NW 6.0mph /  9.7km/h 7.0mph /  11.3km/h 25% 0.00in /  0mm
18:36 57.0 °F /  13.9 °C 23.4 °F /  -4.8 °C 30.01in /  1016.1hPa WNW 5.0mph /  8km/h 7.0mph /  11.3km/h 27% 0.00in /  0mm
18:41 57.1 °F /  13.9 °C 21.6 °F /  -5.8 °C 30.01in /  1016.1hPa West 5.0mph /  8km/h 7.0mph /  11.3km/h 25% 0.00in /  0mm
18:46 57.2 °F /  14 °C 23.5 °F /  -4.7 °C 30.01in /  1016.1hPa West 3.0mph /  4.8km/h 3.0mph /  4.8km/h 27% 0.00in /  0mm
18:51 57.2 °F /  14 °C 21.7 °F /  -5.7 °C 30.00in /  1015.8hPa West 5.0mph /  8km/h 8.0mph /  12.9km/h 25% 0.00in /  0mm
18:52 57.2 °F /  14 °C 21.7 °F /  -5.7 °C 30.00in /  1015.8hPa WSW 7.0mph /  11.3km/h 8.0mph /  12.9km/h 25% 0.00in /  0mm
18:53 57.1 °F /  13.9 °C 21.6 °F /  -5.8 °C 30.00in /  1015.8hPa West 3.0mph /  4.8km/h 8.0mph /  12.9km/h 25% 0.00in /  0mm
18:57 56.9 °F /  13.8 °C 20.5 °F /  -6.4 °C 30.00in /  1015.8hPa West 4.0mph /  6.4km/h 8.0mph /  12.9km/h 24% 0.00in /  0mm
18:58 56.9 °F /  13.8 °C 23.3 °F /  -4.8 °C 30.00in /  1015.8hPa SW 8.0mph /  12.9km/h 8.0mph /  12.9km/h 27% 0.00in /  0mm
19:03 56.9 °F /  13.8 °C 21.5 °F /  -5.8 °C 30.00in /  1015.8hPa WNW 6.0mph /  9.7km/h 8.0mph /  12.9km/h 25% 0.00in /  0mm
19:08 56.7 °F /  13.7 °C 21.3 °F /  -5.9 °C 30.00in /  1015.8hPa West 4.0mph /  6.4km/h 6.0mph /  9.7km/h 25% 0.00in /  0mm
19:09 56.7 °F /  13.7 °C 21.3 °F /  -5.9 °C 30.00in /  1015.8hPa WSW 3.0mph /  4.8km/h 6.0mph /  9.7km/h 25% 0.00in /  0mm
19:14 56.8 °F /  13.8 °C 23.2 °F /  -4.9 °C 30.00in /  1015.8hPa NW 2.0mph /  3.2km/h 4.0mph /  6.4km/h 27% 0.00in /  0mm
19:19 56.8 °F /  13.8 °C 24.9 °F /  -3.9 °C 30.00in /  1015.8hPa NW 1.0mph /  1.6km/h 3.0mph /  4.8km/h 29% 0.00in /  0mm
19:24 56.7 °F /  13.7 °C 21.3 °F /  -5.9 °C 30.00in /  1015.8hPa NNW 2.0mph /  3.2km/h 3.0mph /  4.8km/h 25% 0.00in /  0mm
19:29 56.4 °F /  13.6 °C 24.6 °F /  -4.1 °C 30.01in /  1016.1hPa NNW 1.0mph /  1.6km/h 3.0mph /  4.8km/h 29% 0.00in /  0mm
19:34 56.4 °F /  13.6 °C 24.6 °F /  -4.1 °C 30.00in /  1015.8hPa NW 1.0mph /  1.6km/h 3.0mph /  4.8km/h 29% 0.00in /  0mm
19:35 56.4 °F /  13.6 °C 25.4 °F /  -3.7 °C 30.00in /  1015.8hPa WNW 2.0mph /  3.2km/h 3.0mph /  4.8km/h 30% 0.00in /  0mm
19:37 56.5 °F /  13.6 °C 22.0 °F /  -5.6 °C 30.00in /  1015.8hPa WNW 4.0mph /  6.4km/h 4.0mph /  6.4km/h 26% 0.00in /  0mm
19:42 56.3 °F /  13.5 °C 21.0 °F /  -6.1 °C 30.01in /  1016.1hPa West 1.0mph /  1.6km/h 4.0mph /  6.4km/h 25% 0.00in /  0mm
19:47 56.4 °F /  13.6 °C 22.0 °F /  -5.6 °C 30.01in /  1016.1hPa WSW 1.0mph /  1.6km/h 3.0mph /  4.8km/h 26% 0.00in /  0mm
19:52 56.3 °F /  13.5 °C 23.6 °F /  -4.7 °C 30.01in /  1016.1hPa West 1.0mph /  1.6km/h 4.0mph /  6.4km/h 28% 0.00in /  0mm
19:54 56.1 °F /  13.4 °C 23.5 °F /  -4.7 °C 30.01in /  1016.1hPa West 1.0mph /  1.6km/h 3.0mph /  4.8km/h 28% 0.00in /  0mm
19:57 55.8 °F /  13.2 °C 23.2 °F /  -4.9 °C 30.01in /  1016.1hPa West 1.0mph /  1.6km/h 1.0mph /  1.6km/h 28% 0.00in /  0mm
19:59 55.6 °F /  13.1 °C 23.9 °F /  -4.5 °C 30.01in /  1016.1hPa Calm   1.0mph /  1.6km/h 29% 0.00in /  0mm
20:04 55.0 °F /  12.8 °C 22.5 °F /  -5.3 °C 30.01in /  1016.1hPa West 1.0mph /  1.6km/h 1.0mph /  1.6km/h 28% 0.00in /  0mm
20:09 54.4 °F /  12.4 °C 25.2 °F /  -3.8 °C 30.01in /  1016.1hPa WSW 1.0mph /  1.6km/h 2.0mph /  3.2km/h 32% 0.00in /  0mm
20:14 53.8 °F /  12.1 °C 24.6 °F /  -4.1 °C 30.01in /  1016.1hPa SW 1.0mph /  1.6km/h 2.0mph /  3.2km/h 32% 0.00in /  0mm
20:15 53.7 °F /  12.1 °C 24.6 °F /  -4.1 °C 30.01in /  1016.1hPa Calm   2.0mph /  3.2km/h 32% 0.00in /  0mm
20:20 53.2 °F /  11.8 °C 24.9 °F /  -3.9 °C 30.01in /  1016.1hPa Calm   1.0mph /  1.6km/h 33% 0.00in /  0mm
20:25 52.5 °F /  11.4 °C 26.3 °F /  -3.2 °C 30.01in /  1016.1hPa SW 1.0mph /  1.6km/h 2.0mph /  3.2km/h 36% 0.00in /  0mm
20:27 52.2 °F /  11.2 °C 24.7 °F /  -4.1 °C 30.01in /  1016.1hPa SSW 1.0mph /  1.6km/h 2.0mph /  3.2km/h 34% 0.00in /  0mm
20:30 51.8 °F /  11 °C 25.7 °F /  -3.5 °C 30.01in /  1016.1hPa SE 2.0mph /  3.2km/h 2.0mph /  3.2km/h 36% 0.00in /  0mm
20:33 51.6 °F /  10.9 °C 26.2 °F /  -3.2 °C 30.01in /  1016.1hPa SSE 1.0mph /  1.6km/h 2.0mph /  3.2km/h 37% 0.00in /  0mm
20:35 51.3 °F /  10.7 °C 24.6 °F /  -4.1 °C 30.01in /  1016.1hPa SSE 1.0mph /  1.6km/h 2.0mph /  3.2km/h 35% 0.00in /  0mm
20:36 51.3 °F /  10.7 °C 24.6 °F /  -4.1 °C 30.01in /  1016.1hPa SSE 1.0mph /  1.6km/h 1.0mph /  1.6km/h 35% 0.00in /  0mm
20:41 51.0 °F /  10.6 °C 24.3 °F /  -4.3 °C 30.02in /  1016.5hPa Calm   1.0mph /  1.6km/h 35% 0.00in /  0mm
20:46 50.8 °F /  10.4 °C 24.8 °F /  -4 °C 30.02in /  1016.5hPa SSE 2.0mph /  3.2km/h 2.0mph /  3.2km/h 36% 0.00in /  0mm
20:51 50.5 °F /  10.3 °C 24.6 °F /  -4.1 °C 30.02in /  1016.5hPa SSE 1.0mph /  1.6km/h 2.0mph /  3.2km/h 36% 0.00in /  0mm
20:52 50.5 °F /  10.3 °C 24.6 °F /  -4.1 °C 30.02in /  1016.5hPa SSE 1.0mph /  1.6km/h 2.0mph /  3.2km/h 36% 0.00in /  0mm
20:53 50.4 °F /  10.2 °C 24.5 °F /  -4.2 °C 30.02in /  1016.5hPa SSE 1.0mph /  1.6km/h 1.0mph /  1.6km/h 36% 0.00in /  0mm
20:57 50.3 °F /  10.2 °C 23.7 °F /  -4.6 °C 30.02in /  1016.5hPa Calm   1.0mph /  1.6km/h 35% 0.00in /  0mm
20:59 50.3 °F /  10.2 °C 23.7 °F /  -4.6 °C 30.02in /  1016.5hPa Calm   1.0mph /  1.6km/h 35% 0.00in /  0mm
21:04 50.2 °F /  10.1 °C 24.3 °F /  -4.3 °C 30.02in /  1016.5hPa Calm   1.0mph /  1.6km/h 36% 0.00in /  0mm
21:09 50.1 °F /  10.1 °C 23.5 °F /  -4.7 °C 30.02in /  1016.5hPa Calm   1.0mph /  1.6km/h 35% 0.00in /  0mm
21:14 50.0 °F /  10 °C 24.1 °F /  -4.4 °C 30.03in /  1016.8hPa Calm     36% 0.00in /  0mm
21:20 49.8 °F /  9.9 °C 23.9 °F /  -4.5 °C 30.03in /  1016.8hPa Calm     36% 0.00in /  0mm
21:25 49.6 °F /  9.8 °C 24.4 °F /  -4.2 °C 30.03in /  1016.8hPa Calm     37% 0.00in /  0mm
21:26 49.4 °F /  9.7 °C 24.9 °F /  -3.9 °C 30.03in /  1016.8hPa Calm     38% 0.00in /  0mm
21:30 48.9 °F /  9.4 °C 25.0 °F /  -3.9 °C 30.03in /  1016.8hPa SSE 1.0mph /  1.6km/h 1.0mph /  1.6km/h 39% 0.00in /  0mm
21:31 48.7 °F /  9.3 °C 24.2 °F /  -4.3 °C 30.03in /  1016.8hPa SSE 1.0mph /  1.6km/h 1.0mph /  1.6km/h 38% 0.00in /  0mm
21:32 48.7 °F /  9.3 °C 24.2 °F /  -4.3 °C 30.03in /  1016.8hPa SSE 1.0mph /  1.6km/h 1.0mph /  1.6km/h 38% 0.00in /  0mm
21:36 48.5 °F /  9.2 °C 24.7 °F /  -4.1 °C 30.03in /  1016.8hPa SSE 1.0mph /  1.6km/h 1.0mph /  1.6km/h 39% 0.00in /  0mm
21:37 48.5 °F /  9.2 °C 24.7 °F /  -4.1 °C 30.03in /  1016.8hPa SSE 2.0mph /  3.2km/h 2.0mph /  3.2km/h 39% 0.00in /  0mm
21:42 48.6 °F /  9.2 °C 24.2 °F /  -4.3 °C 30.03in /  1016.8hPa SE 1.0mph /  1.6km/h 2.0mph /  3.2km/h 38% 0.00in /  0mm
21:43 48.6 °F /  9.2 °C 24.2 °F /  -4.3 °C 30.03in /  1016.8hPa SE 1.0mph /  1.6km/h 2.0mph /  3.2km/h 38% 0.00in /  0mm
21:48 48.9 °F /  9.4 °C 24.4 °F /  -4.2 °C 30.04in /  1017.2hPa SSE 1.0mph /  1.6km/h 2.0mph /  3.2km/h 38% 0.00in /  0mm
21:53 49.0 °F /  9.4 °C 24.5 °F /  -4.2 °C 30.04in /  1017.2hPa SSE 1.0mph /  1.6km/h 1.0mph /  1.6km/h 38% 0.00in /  0mm
21:54 49.1 °F /  9.5 °C 24.0 °F /  -4.4 °C 30.04in /  1017.2hPa SSE 1.0mph /  1.6km/h 1.0mph /  1.6km/h 37% 0.00in /  0mm
21:58 49.2 °F /  9.6 °C 24.1 °F /  -4.4 °C 30.04in /  1017.2hPa SSE 1.0mph /  1.6km/h 1.0mph /  1.6km/h 37% 0.00in /  0mm
22:03 49.2 °F /  9.6 °C 24.1 °F /  -4.4 °C 30.05in /  1017.5hPa Calm   1.0mph /  1.6km/h 37% 0.00in /  0mm
22:08 48.9 °F /  9.4 °C 23.8 °F /  -4.6 °C 30.05in /  1017.5hPa Calm     37% 0.00in /  0mm
22:13 48.2 °F /  9 °C 24.4 °F /  -4.2 °C 30.06in /  1017.8hPa Calm     39% 0.00in /  0mm
22:18 47.3 °F /  8.5 °C 26.0 °F /  -3.3 °C 30.06in /  1017.8hPa Calm     43% 0.00in /  0mm
22:23 46.3 °F /  7.9 °C 25.0 °F /  -3.9 °C 30.06in /  1017.8hPa Calm     43% 0.00in /  0mm
22:28 45.9 °F /  7.7 °C 25.8 °F /  -3.4 °C 30.06in /  1017.8hPa SSE 2.0mph /  3.2km/h 2.0mph /  3.2km/h 45% 0.00in /  0mm
22:29 45.9 °F /  7.7 °C 25.8 °F /  -3.4 °C 30.06in /  1017.8hPa SSE 2.0mph /  3.2km/h 2.0mph /  3.2km/h 45% 0.00in /  0mm
22:34 46.1 °F /  7.8 °C 25.4 °F /  -3.7 °C 30.06in /  1017.8hPa SE 1.0mph /  1.6km/h 2.0mph /  3.2km/h 44% 0.00in /  0mm
22:35 46.2 °F /  7.9 °C 25.0 °F /  -3.9 °C 30.06in /  1017.8hPa SE 1.0mph /  1.6km/h 2.0mph /  3.2km/h 43% 0.00in /  0mm
22:39 46.6 °F /  8.1 °C 24.8 °F /  -4 °C 30.07in /  1018.2hPa SE 1.0mph /  1.6km/h 1.0mph /  1.6km/h 42% 0.00in /  0mm
22:40 46.8 °F /  8.2 °C 24.4 °F /  -4.2 °C 30.07in /  1018.2hPa SE 1.0mph /  1.6km/h 1.0mph /  1.6km/h 41% 0.00in /  0mm
22:44 47.2 °F /  8.4 °C 24.1 °F /  -4.4 °C 30.07in /  1018.2hPa SE 1.0mph /  1.6km/h 1.0mph /  1.6km/h 40% 0.00in /  0mm
22:49 47.1 °F /  8.4 °C 24.0 °F /  -4.4 °C 30.07in /  1018.2hPa Calm     40% 0.00in /  0mm
22:54 46.8 °F /  8.2 °C 23.8 °F /  -4.6 °C 30.07in /  1018.2hPa SSE 1.0mph /  1.6km/h 1.0mph /  1.6km/h 40% 0.00in /  0mm
22:55 46.8 °F /  8.2 °C 23.8 °F /  -4.6 °C 30.07in /  1018.2hPa SSE 1.0mph /  1.6km/h 1.0mph /  1.6km/h 40% 0.00in /  0mm
22:57 46.8 °F /  8.2 °C 24.4 °F /  -4.2 °C 30.07in /  1018.2hPa SSE 1.0mph /  1.6km/h 1.0mph /  1.6km/h 41% 0.00in /  0mm
22:58 46.8 °F /  8.2 °C 24.4 °F /  -4.2 °C 30.07in /  1018.2hPa Calm   1.0mph /  1.6km/h 41% 0.00in /  0mm
22:59 46.9 °F /  8.3 °C 24.5 °F /  -4.2 °C 30.07in /  1018.2hPa Calm   1.0mph /  1.6km/h 41% 0.00in /  0mm
23:04 47.0 °F /  8.3 °C 24.0 °F /  -4.4 °C 30.08in /  1018.5hPa Calm   1.0mph /  1.6km/h 40% 0.00in /  0mm
23:10 47.2 °F /  8.4 °C 23.5 °F /  -4.7 °C 30.08in /  1018.5hPa Calm   1.0mph /  1.6km/h 39% 0.00in /  0mm
23:15 47.4 °F /  8.6 °C 23.1 °F /  -4.9 °C 30.08in /  1018.5hPa Calm   1.0mph /  1.6km/h 38% 0.00in /  0mm
23:20 47.4 °F /  8.6 °C 23.1 °F /  -4.9 °C 30.08in /  1018.5hPa SSE 1.0mph /  1.6km/h 1.0mph /  1.6km/h 38% 0.00in /  0mm
23:25 47.5 °F /  8.6 °C 23.2 °F /  -4.9 °C 30.07in /  1018.2hPa SSE 1.0mph /  1.6km/h 1.0mph /  1.6km/h 38% 0.00in /  0mm
23:26 47.5 °F /  8.6 °C 23.2 °F /  -4.9 °C 30.08in /  1018.5hPa SSE 1.0mph /  1.6km/h 1.0mph /  1.6km/h 38% 0.00in /  0mm
23:29 47.5 °F /  8.6 °C 23.2 °F /  -4.9 °C 30.08in /  1018.5hPa SSE 1.0mph /  1.6km/h 1.0mph /  1.6km/h 38% 0.00in /  0mm
23:31 47.5 °F /  8.6 °C 23.2 °F /  -4.9 °C 30.07in /  1018.2hPa SE 1.0mph /  1.6km/h 1.0mph /  1.6km/h 38% 0.00in /  0mm
23:32 47.6 °F /  8.7 °C 23.3 °F /  -4.8 °C 30.07in /  1018.2hPa SSE 1.0mph /  1.6km/h 1.0mph /  1.6km/h 38% 0.00in /  0mm
23:36 47.6 °F /  8.7 °C 23.3 °F /  -4.8 °C 30.08in /  1018.5hPa SE 1.0mph /  1.6km/h 1.0mph /  1.6km/h 38% 0.00in /  0mm
23:37 47.5 °F /  8.6 °C 23.8 °F /  -4.6 °C 30.08in /  1018.5hPa SE 1.0mph /  1.6km/h 1.0mph /  1.6km/h 39% 0.00in /  0mm
23:42 47.2 °F /  8.4 °C 23.5 °F /  -4.7 °C 30.08in /  1018.5hPa SE 2.0mph /  3.2km/h 2.0mph /  3.2km/h 39% 0.00in /  0mm
23:47 47.2 °F /  8.4 °C 23.5 °F /  -4.7 °C 30.08in /  1018.5hPa SE 1.0mph /  1.6km/h 2.0mph /  3.2km/h 39% 0.00in /  0mm
23:52 47.4 °F /  8.6 °C 24.3 °F /  -4.3 °C 30.08in /  1018.5hPa SE 2.0mph /  3.2km/h 2.0mph /  3.2km/h 40% 0.00in /  0mm
23:53 47.4 °F /  8.6 °C 24.3 °F /  -4.3 °C 30.08in /  1018.5hPa SE 1.0mph /  1.6km/h 2.0mph /  3.2km/h 40% 0.00in /  0mm
23:58 47.2 °F /  8.4 °C 24.1 °F /  -4.4 °C 30.08in /  1018.5hPa SE 1.0mph /  1.6km/h 2.0mph /  3.2km/h 40% 0.00in /  0mm
23:59 47.2 °F /  8.4 °C 24.1 °F /  -4.4 °C 30.08in /  1018.5hPa SE 1.0mph /  1.6km/h 2.0mph /  3.2km/h 40% 0.00in /  0mm
Compliments of Weather Underground